PWSweather.com
Personal Weather Stations
Station Observations

LlefiĆ BadalonaES

Lat: 41.44, Lon: 2.2175

Elevation: 213.254

Station Type: oregon WMR918

http://www.estacionmeteorologicabadalonallefia.com

Latest ConditionsUpdated 8:05:05 PM GMT+01:01 Friday, Mar 27, 2015
Currently Today's Max Today's Min Today's Average
Temperature 57.9°F14.4°C 60.6°F15.9°C 47.7°F8.7°C 54.8°F12.7°C
Dew Point 46.2°F7.9°C 49.5°F9.7°C 35.2°F1.8°C 42.7°F5.9°C
Winds 2.3 mph SE3.7 kmh SE 7.9 mph NW12.7 kmh NW - 4.0 mph 6.4 kmh
Wind Gusts 4.1 mph6.6 kmh 13.7 mph22.0 kmh - -
Humidity 65% 80% 40% 65%
Pressure 30.12 in1020.0 mb 30.12 in1020.0 mb 29.97 in1014.9 mb -
Hour Temp Dew Point Humidity Winds Wind Gusts Pressure Precip Precip Rate Daily Precip Total
08:05 PM 57.9°F14.4°C 46.2°F7.9°C 65% 2.3 mph SE3.7 kmh SE 4.1 mph6.6 kmh 30.12 in1020.0 mb - 0.00 in0.0 mm 0.00 in0.0 mm
07:54 PM 58.1°F14.5°C 46.0°F7.8°C 64% 2.4 mph SE3.9 kmh SE 4.1 mph6.6 kmh 30.12 in1020.0 mb - 0.00 in0.0 mm 0.00 in0.0 mm
07:44 PM 57.9°F14.4°C 45.8°F7.7°C 64% Calm Calm -- 30.12 in1020.0 mb - 0.00 in0.0 mm 0.00 in0.0 mm
07:34 PM 57.9°F14.4°C 45.8°F7.7°C 64% 0.6 mph NE1.0 kmh NE 4.1 mph6.6 kmh 30.09 in1019.0 mb - 0.00 in0.0 mm 0.00 in0.0 mm
07:24 PM 57.9°F14.4°C 45.4°F7.4°C 63% 0.9 mph E1.4 kmh E 4.1 mph6.6 kmh 30.12 in1020.0 mb - 0.00 in0.0 mm 0.00 in0.0 mm
07:14 PM 57.9°F14.4°C 45.4°F7.4°C 63% Calm Calm -- 30.12 in1020.0 mb - 0.00 in0.0 mm 0.00 in0.0 mm
07:05 PM 57.9°F14.4°C 45.4°F7.4°C 63% Calm Calm 3.5 mph5.6 kmh 30.12 in1020.0 mb - 0.00 in0.0 mm 0.00 in0.0 mm
06:54 PM 58.1°F14.5°C 45.1°F7.3°C 62% Calm Calm -- 30.12 in1020.0 mb - 0.00 in0.0 mm 0.00 in0.0 mm
06:44 PM 58.5°F14.7°C 45.5°F7.5°C 62% 0.3 mph E0.5 kmh E 4.1 mph6.6 kmh 30.12 in1020.0 mb - 0.00 in0.0 mm 0.00 in0.0 mm
06:34 PM 58.5°F14.7°C 45.1°F7.3°C 61% 3.4 mph SE5.5 kmh SE 5.2 mph8.4 kmh 30.12 in1020.0 mb - 0.00 in0.0 mm 0.00 in0.0 mm
06:24 PM 59.2°F15.1°C 43.5°F6.4°C 56% 0.5 mph E0.8 kmh E 4.1 mph6.6 kmh 30.12 in1020.0 mb - 0.00 in0.0 mm 0.00 in0.0 mm
06:14 PM 59.0°F15.0°C 40.9°F4.9°C 51% 3.2 mph SSE5.1 kmh SSE 7.0 mph11.3 kmh 30.12 in1020.0 mb - 0.00 in0.0 mm 0.00 in0.0 mm
06:05 PM 59.4°F15.2°C 39.1°F3.9°C 47% 3.7 mph ESE6.0 kmh ESE 8.1 mph13.0 kmh 30.12 in1020.0 mb - 0.00 in0.0 mm 0.00 in0.0 mm
05:54 PM 59.5°F15.3°C 35.2°F1.8°C 40% 0.2 mph ESE0.3 kmh ESE 4.6 mph7.4 kmh 30.12 in1020.0 mb - 0.00 in0.0 mm 0.00 in0.0 mm
05:44 PM 60.3°F15.7°C 39.4°F4.1°C 46% 4.9 mph SSE7.9 kmh SSE 8.1 mph13.0 kmh 30.12 in1020.0 mb - 0.00 in0.0 mm 0.00 in0.0 mm
05:34 PM 60.4°F15.8°C 38.9°F3.8°C 45% 3.2 mph ESE5.1 kmh ESE 6.4 mph10.3 kmh 30.12 in1020.0 mb - 0.00 in0.0 mm 0.00 in0.0 mm
05:24 PM 60.4°F15.8°C 37.8°F3.2°C 43% 3.0 mph SSE4.8 kmh SSE 5.2 mph8.4 kmh 30.12 in1020.0 mb - 0.00 in0.0 mm 0.00 in0.0 mm
05:14 PM 60.6°F15.9°C 39.6°F4.2°C 46% 0.7 mph SE1.1 kmh SE 6.4 mph10.3 kmh 30.12 in1020.0 mb - 0.00 in0.0 mm 0.00 in0.0 mm
05:05 PM 59.9°F15.5°C 39.1°F3.9°C 46% 2.9 mph E4.7 kmh E 5.2 mph8.4 kmh 30.12 in1020.0 mb - 0.00 in0.0 mm 0.00 in0.0 mm
04:54 PM 59.5°F15.3°C 37.6°F3.1°C 44% 4.0 mph E6.4 kmh E 6.4 mph10.3 kmh 30.12 in1020.0 mb - 0.00 in0.0 mm 0.00 in0.0 mm
04:44 PM 59.0°F15.0°C 36.6°F2.6°C 43% 3.9 mph SE6.3 kmh SE 4.6 mph7.4 kmh 30.12 in1020.0 mb - 0.00 in0.0 mm 0.00 in0.0 mm
04:34 PM 59.4°F15.2°C 39.1°F3.9°C 47% 4.5 mph SE7.2 kmh SE 7.0 mph11.3 kmh 30.09 in1019.0 mb - 0.00 in0.0 mm 0.00 in0.0 mm
04:24 PM 59.2°F15.1°C 40.5°F4.7°C 50% 5.2 mph SE8.4 kmh SE 7.0 mph11.3 kmh 30.12 in1020.0 mb - 0.00 in0.0 mm 0.00 in0.0 mm
04:14 PM 59.2°F15.1°C 44.4°F6.9°C 58% 5.4 mph SE8.7 kmh SE 9.9 mph15.9 kmh 30.12 in1020.0 mb - 0.00 in0.0 mm 0.00 in0.0 mm
04:05 PM 59.4°F15.2°C 46.0°F7.8°C 61% 3.7 mph ESE6.0 kmh ESE 7.0 mph11.3 kmh 30.12 in1020.0 mb - 0.00 in0.0 mm 0.00 in0.0 mm
03:54 PM 59.2°F15.1°C 44.4°F6.9°C 58% 7.0 mph SE11.3 kmh SE 10.7 mph17.2 kmh 30.12 in1020.0 mb - 0.00 in0.0 mm 0.00 in0.0 mm
03:44 PM 59.2°F15.1°C 43.9°F6.6°C 57% 4.8 mph ESE7.7 kmh ESE 9.9 mph15.9 kmh 30.12 in1020.0 mb - 0.00 in0.0 mm 0.00 in0.0 mm
03:34 PM 59.2°F15.1°C 46.2°F7.9°C 62% 4.1 mph ESE6.6 kmh ESE 8.1 mph13.0 kmh 30.12 in1020.0 mb - 0.00 in0.0 mm 0.00 in0.0 mm
03:24 PM 59.6°F15.3°C 44.8°F7.1°C 58% 5.8 mph SSE9.3 kmh SSE 8.1 mph13.0 kmh 30.12 in1020.0 mb - 0.00 in0.0 mm 0.00 in0.0 mm
03:14 PM 59.5°F15.3°C 44.3°F6.8°C 57% 4.4 mph E7.1 kmh E 7.6 mph12.2 kmh 30.12 in1020.0 mb - 0.00 in0.0 mm 0.00 in0.0 mm
03:05 PM 59.7°F15.4°C 42.5°F5.8°C 53% 5.7 mph ESE9.2 kmh ESE 10.7 mph17.2 kmh 30.12 in1020.0 mb - 0.00 in0.0 mm 0.00 in0.0 mm
02:54 PM 60.6°F15.9°C 38.6°F3.7°C 44% 4.7 mph SSE7.6 kmh SSE 9.9 mph15.9 kmh 30.10 in1019.3 mb - 0.00 in0.0 mm 0.00 in0.0 mm
02:44 PM 59.8°F15.4°C 39.5°F4.2°C 47% 5.5 mph ESE8.9 kmh ESE 7.0 mph11.3 kmh 30.09 in1019.0 mb - 0.00 in0.0 mm 0.00 in0.0 mm
02:34 PM 59.6°F15.3°C 40.9°F4.9°C 50% 5.1 mph S8.2 kmh S 8.7 mph14.0 kmh 30.09 in1019.0 mb - 0.00 in0.0 mm 0.00 in0.0 mm
02:24 PM 59.1°F15.1°C 45.2°F7.3°C 60% 5.4 mph SSE8.7 kmh SSE 9.9 mph15.9 kmh 30.12 in1020.0 mb - 0.00 in0.0 mm 0.00 in0.0 mm
02:14 PM 59.0°F15.0°C 46.0°F7.8°C 62% 2.6 mph ESE4.2 kmh ESE 6.4 mph10.3 kmh 30.12 in1020.0 mb - 0.00 in0.0 mm 0.00 in0.0 mm
02:05 PM 59.2°F15.1°C 47.8°F8.8°C 66% 3.5 mph E5.6 kmh E 8.1 mph13.0 kmh 30.12 in1020.0 mb - 0.00 in0.0 mm 0.00 in0.0 mm
01:54 PM 59.2°F15.1°C 47.4°F8.6°C 65% 4.1 mph ESE6.6 kmh ESE 8.1 mph13.0 kmh 30.12 in1020.0 mb - 0.00 in0.0 mm 0.00 in0.0 mm
01:44 PM 58.5°F14.7°C 48.8°F9.3°C 70% 4.6 mph E7.4 kmh E 10.5 mph16.9 kmh 30.12 in1020.0 mb - 0.00 in0.0 mm 0.00 in0.0 mm
01:34 PM 58.5°F14.7°C 49.5°F9.7°C 72% 5.7 mph NE9.2 kmh NE 9.9 mph15.9 kmh 30.12 in1020.0 mb - 0.00 in0.0 mm 0.00 in0.0 mm
01:24 PM 58.2°F14.6°C 48.1°F8.9°C 69% 4.1 mph E6.6 kmh E 7.0 mph11.3 kmh 30.12 in1020.0 mb - 0.00 in0.0 mm 0.00 in0.0 mm
01:14 PM 58.3°F14.6°C 48.2°F9.0°C 69% 4.1 mph ESE6.6 kmh ESE 9.9 mph15.9 kmh 30.12 in1020.0 mb - 0.00 in0.0 mm 0.00 in0.0 mm
01:05 PM 58.9°F14.9°C 49.5°F9.7°C 71% 4.4 mph SE7.1 kmh SE 7.6 mph12.2 kmh 30.12 in1020.0 mb - 0.00 in0.0 mm 0.00 in0.0 mm
12:54 PM 58.5°F14.7°C 46.7°F8.2°C 65% 4.9 mph ESE7.9 kmh ESE 7.6 mph12.2 kmh 30.12 in1020.0 mb - 0.00 in0.0 mm 0.00 in0.0 mm
12:44 PM 58.6°F14.8°C 46.5°F8.1°C 64% 4.7 mph ENE7.6 kmh ENE 8.7 mph14.0 kmh 30.12 in1020.0 mb - 0.00 in0.0 mm 0.00 in0.0 mm
12:34 PM 58.4°F14.7°C 45.8°F7.7°C 63% 6.0 mph ESE9.7 kmh ESE 8.1 mph13.0 kmh 30.12 in1020.0 mb - 0.00 in0.0 mm 0.00 in0.0 mm
12:24 PM 59.2°F15.1°C 46.6°F8.1°C 63% 3.6 mph ENE5.8 kmh ENE 8.7 mph14.0 kmh 30.12 in1020.0 mb - 0.00 in0.0 mm 0.00 in0.0 mm
12:14 PM 58.7°F14.8°C 45.3°F7.4°C 61% 4.9 mph ENE7.9 kmh ENE 9.9 mph15.9 kmh 30.12 in1020.0 mb - 0.00 in0.0 mm 0.00 in0.0 mm
12:05 PM 58.4°F14.7°C 44.6°F7.0°C 60% 5.6 mph ESE9.0 kmh ESE 8.1 mph13.0 kmh 30.12 in1020.0 mb - 0.00 in0.0 mm 0.00 in0.0 mm
11:54 AM 58.5°F14.7°C 44.7°F7.1°C 60% 4.2 mph ESE6.8 kmh ESE 8.1 mph13.0 kmh 30.12 in1020.0 mb - 0.00 in0.0 mm 0.00 in0.0 mm
11:44 AM 58.6°F14.8°C 45.7°F7.6°C 62% 4.1 mph SE6.6 kmh SE 7.0 mph11.3 kmh 30.12 in1020.0 mb - 0.00 in0.0 mm 0.00 in0.0 mm
11:34 AM 58.5°F14.7°C 46.3°F7.9°C 64% 3.2 mph E5.1 kmh E 6.4 mph10.3 kmh 30.12 in1020.0 mb - 0.00 in0.0 mm 0.00 in0.0 mm
11:24 AM 59.2°F15.1°C 45.3°F7.4°C 60% 3.5 mph ESE5.6 kmh ESE 8.1 mph13.0 kmh 30.12 in1020.0 mb - 0.00 in0.0 mm 0.00 in0.0 mm
11:14 AM 58.7°F14.8°C 43.5°F6.4°C 57% 3.7 mph E6.0 kmh E 7.0 mph11.3 kmh 30.12 in1020.0 mb - 0.00 in0.0 mm 0.00 in0.0 mm
11:05 AM 58.9°F14.9°C 42.3°F5.7°C 54% 4.7 mph E7.6 kmh E 7.6 mph12.2 kmh 30.12 in1020.0 mb - 0.00 in0.0 mm 0.00 in0.0 mm
10:54 AM 59.4°F15.2°C 42.2°F5.7°C 53% 4.0 mph E6.4 kmh E 7.0 mph11.3 kmh 30.12 in1020.0 mb - 0.00 in0.0 mm 0.00 in0.0 mm
10:44 AM 59.4°F15.2°C 41.7°F5.4°C 52% 3.2 mph ESE5.1 kmh ESE 6.4 mph10.3 kmh 30.12 in1020.0 mb - 0.00 in0.0 mm 0.00 in0.0 mm
10:34 AM 59.0°F15.0°C 40.4°F4.7°C 50% 3.2 mph NE5.1 kmh NE 7.6 mph12.2 kmh 30.12 in1020.0 mb - 0.00 in0.0 mm 0.00 in0.0 mm
10:24 AM 59.5°F15.3°C 40.3°F4.6°C 49% 2.4 mph E3.9 kmh E 4.6 mph7.4 kmh 30.12 in1020.0 mb - 0.00 in0.0 mm 0.00 in0.0 mm
10:14 AM 58.3°F14.6°C 39.7°F4.3°C 50% 4.0 mph NW6.4 kmh NW 7.6 mph12.2 kmh 30.12 in1020.0 mb - 0.00 in0.0 mm 0.00 in0.0 mm
10:05 AM 57.6°F14.2°C 40.1°F4.5°C 52% 2.4 mph NW3.9 kmh NW 5.2 mph8.4 kmh 30.09 in1019.0 mb - 0.00 in0.0 mm 0.00 in0.0 mm
09:54 AM 56.8°F13.8°C 39.9°F4.4°C 53% 2.5 mph NNW4.0 kmh NNW 4.6 mph7.4 kmh 30.09 in1019.0 mb - 0.00 in0.0 mm 0.00 in0.0 mm
09:44 AM 56.2°F13.4°C 39.7°F4.3°C 54% 3.1 mph WNW5.0 kmh WNW 4.1 mph6.6 kmh 30.09 in1019.0 mb - 0.00 in0.0 mm 0.00 in0.0 mm
09:34 AM 55.5°F13.1°C 40.1°F4.5°C 56% 3.6 mph NW5.8 kmh NW 9.9 mph15.9 kmh 30.09 in1019.0 mb - 0.00 in0.0 mm 0.00 in0.0 mm
09:14 AM 54.2°F12.3°C 40.6°F4.8°C 60% 6.6 mph NW10.6 kmh NW 10.5 mph16.9 kmh 30.09 in1019.0 mb - 0.00 in0.0 mm 0.00 in0.0 mm
09:05 AM 53.8°F12.1°C 40.6°F4.8°C 61% 6.2 mph NW10.0 kmh NW 13.7 mph22.0 kmh 30.09 in1019.0 mb - 0.00 in0.0 mm 0.00 in0.0 mm
08:54 AM 53.2°F11.8°C 41.0°F5.0°C 63% 6.0 mph NW9.7 kmh NW 10.7 mph17.2 kmh 30.06 in1017.9 mb - 0.00 in0.0 mm 0.00 in0.0 mm
08:44 AM 52.7°F11.5°C 40.5°F4.7°C 63% 2.0 mph WNW3.2 kmh WNW 4.6 mph7.4 kmh 30.06 in1017.9 mb - 0.00 in0.0 mm 0.00 in0.0 mm
08:34 AM 52.3°F11.3°C 40.1°F4.5°C 63% 6.2 mph NW10.0 kmh NW 10.7 mph17.2 kmh 30.06 in1017.9 mb - 0.00 in0.0 mm 0.00 in0.0 mm
08:24 AM 52.2°F11.2°C 41.1°F5.1°C 66% 3.7 mph WNW6.0 kmh WNW 7.0 mph11.3 kmh 30.06 in1017.9 mb - 0.00 in0.0 mm 0.00 in0.0 mm
08:14 AM 51.8°F11.0°C 41.2°F5.1°C 67% 0.4 mph NW0.6 kmh NW 7.0 mph11.3 kmh 30.06 in1017.9 mb - 0.00 in0.0 mm 0.00 in0.0 mm
08:05 AM 51.4°F10.8°C 41.6°F5.3°C 69% 2.5 mph NNW4.0 kmh NNW 4.1 mph6.6 kmh 30.06 in1017.9 mb - 0.00 in0.0 mm 0.00 in0.0 mm
07:54 AM 51.0°F10.6°C 41.6°F5.3°C 70% 3.2 mph NNW5.1 kmh NNW 7.6 mph12.2 kmh 30.06 in1017.9 mb - 0.00 in0.0 mm 0.00 in0.0 mm
07:44 AM 50.9°F10.5°C 41.5°F5.3°C 70% Calm Calm 3.5 mph5.6 kmh 30.06 in1017.9 mb - 0.00 in0.0 mm 0.00 in0.0 mm
07:34 AM 50.7°F10.4°C 41.7°F5.4°C 71% 4.0 mph NW6.4 kmh NW 6.4 mph10.3 kmh 30.06 in1017.9 mb - 0.00 in0.0 mm 0.00 in0.0 mm
07:24 AM 50.5°F10.3°C 41.8°F5.4°C 72% 4.1 mph NW6.6 kmh NW 7.6 mph12.2 kmh 30.06 in1017.9 mb - 0.00 in0.0 mm 0.00 in0.0 mm
07:14 AM 50.5°F10.3°C 42.6°F5.9°C 74% 7.2 mph NW11.6 kmh NW 12.5 mph20.1 kmh 30.06 in1017.9 mb - 0.00 in0.0 mm 0.00 in0.0 mm
07:05 AM 50.0°F10.0°C 43.1°F6.2°C 77% 6.8 mph NW10.9 kmh NW 11.3 mph18.2 kmh 30.06 in1017.9 mb - 0.00 in0.0 mm 0.00 in0.0 mm
06:54 AM 49.6°F9.8°C 43.4°F6.3°C 79% 1.0 mph NW1.6 kmh NW 9.9 mph15.9 kmh 30.03 in1016.9 mb - 0.00 in0.0 mm 0.00 in0.0 mm
06:44 AM 49.5°F9.7°C 43.5°F6.4°C 80% 4.8 mph NW7.7 kmh NW 10.7 mph17.2 kmh 30.03 in1016.9 mb - 0.00 in0.0 mm 0.00 in0.0 mm
06:34 AM 49.1°F9.5°C 43.2°F6.2°C 80% 6.7 mph WNW10.8 kmh WNW 11.3 mph18.2 kmh 30.03 in1016.9 mb - 0.00 in0.0 mm 0.00 in0.0 mm
06:24 AM 49.1°F9.5°C 42.9°F6.1°C 79% 5.3 mph WNW8.5 kmh WNW 7.6 mph12.2 kmh 30.03 in1016.9 mb - 0.00 in0.0 mm 0.00 in0.0 mm
06:14 AM 48.9°F9.4°C 42.7°F5.9°C 79% 5.2 mph NW8.4 kmh NW 8.1 mph13.0 kmh 30.03 in1016.9 mb - 0.00 in0.0 mm 0.00 in0.0 mm
06:05 AM 49.3°F9.6°C 42.4°F5.8°C 77% 4.1 mph NW6.6 kmh NW 9.9 mph15.9 kmh 30.03 in1016.9 mb - 0.00 in0.0 mm 0.00 in0.0 mm
05:54 AM 49.5°F9.7°C 42.5°F5.8°C 77% 2.4 mph NW3.9 kmh NW 8.1 mph13.0 kmh 30.03 in1016.9 mb - 0.00 in0.0 mm 0.00 in0.0 mm
05:44 AM 49.6°F9.8°C 42.7°F5.9°C 77% 3.4 mph NW5.5 kmh NW 8.1 mph13.0 kmh 30.03 in1016.9 mb - 0.00 in0.0 mm 0.00 in0.0 mm
05:34 AM 49.8°F9.9°C 42.9°F6.1°C 77% 0.6 mph NW1.0 kmh NW 5.2 mph8.4 kmh 30.03 in1016.9 mb - 0.00 in0.0 mm 0.00 in0.0 mm
05:24 AM 49.6°F9.8°C 43.1°F6.2°C 78% 7.9 mph NW12.7 kmh NW 11.3 mph18.2 kmh 30.01 in1016.3 mb - 0.00 in0.0 mm 0.00 in0.0 mm
05:14 AM 49.3°F9.6°C 43.0°F6.1°C 79% 6.8 mph NW10.9 kmh NW 10.7 mph17.2 kmh 30.00 in1015.9 mb - 0.00 in0.0 mm 0.00 in0.0 mm
05:05 AM 48.9°F9.4°C 42.7°F5.9°C 79% 0.1 mph NW0.2 kmh NW 6.4 mph10.3 kmh 30.00 in1015.9 mb - 0.00 in0.0 mm 0.00 in0.0 mm
04:54 AM 48.9°F9.4°C 42.7°F5.9°C 79% 3.2 mph NW5.1 kmh NW 8.1 mph13.0 kmh 30.00 in1015.9 mb - 0.00 in0.0 mm 0.00 in0.0 mm
04:44 AM 48.7°F9.3°C 42.8°F6.0°C 80% 2.6 mph NW4.2 kmh NW 4.6 mph7.4 kmh 30.00 in1015.9 mb - 0.00 in0.0 mm 0.00 in0.0 mm
04:34 AM 48.2°F9.0°C 42.3°F5.7°C 80% 3.6 mph NW5.8 kmh NW 9.3 mph15.0 kmh 30.00 in1015.9 mb - 0.00 in0.0 mm 0.00 in0.0 mm
04:24 AM 47.8°F8.8°C 42.0°F5.6°C 80% 3.3 mph NW5.3 kmh NW 4.6 mph7.4 kmh 30.00 in1015.9 mb - 0.00 in0.0 mm 0.00 in0.0 mm
04:14 AM 47.7°F8.7°C 41.8°F5.4°C 80% 5.8 mph NW9.3 kmh NW 7.6 mph12.2 kmh 30.00 in1015.9 mb - 0.00 in0.0 mm 0.00 in0.0 mm
04:05 AM 48.0°F8.9°C 41.8°F5.4°C 79% 5.2 mph NW8.4 kmh NW 8.1 mph13.0 kmh 30.00 in1015.9 mb - 0.00 in0.0 mm 0.00 in0.0 mm
03:54 AM 48.2°F9.0°C 42.0°F5.6°C 79% 6.2 mph NW10.0 kmh NW 10.7 mph17.2 kmh 30.00 in1015.9 mb - 0.00 in0.0 mm 0.00 in0.0 mm
03:44 AM 48.3°F9.1°C 42.1°F5.6°C 79% 5.8 mph NW9.3 kmh NW 10.7 mph17.2 kmh 30.00 in1015.9 mb - 0.00 in0.0 mm 0.00 in0.0 mm
03:34 AM 48.4°F9.1°C 42.2°F5.7°C 79% 5.5 mph NW8.9 kmh NW 10.5 mph16.9 kmh 30.00 in1015.9 mb - 0.00 in0.0 mm 0.00 in0.0 mm
03:24 AM 48.4°F9.1°C 41.8°F5.4°C 78% 6.3 mph NW10.1 kmh NW 13.1 mph21.1 kmh 30.00 in1015.9 mb - 0.00 in0.0 mm 0.00 in0.0 mm
03:14 AM 48.6°F9.2°C 42.0°F5.6°C 78% 7.0 mph NW11.3 kmh NW 10.7 mph17.2 kmh 30.00 in1015.9 mb - 0.00 in0.0 mm 0.00 in0.0 mm
03:05 AM 48.7°F9.3°C 42.2°F5.7°C 78% 5.1 mph NW8.2 kmh NW 10.7 mph17.2 kmh 30.00 in1015.9 mb - 0.00 in0.0 mm 0.00 in0.0 mm
02:54 AM 48.7°F9.3°C 41.8°F5.4°C 77% 6.1 mph NW9.8 kmh NW 9.9 mph15.9 kmh 30.00 in1015.9 mb - 0.00 in0.0 mm 0.00 in0.0 mm
02:44 AM 48.7°F9.3°C 41.5°F5.3°C 76% 5.7 mph NW9.2 kmh NW 8.1 mph13.0 kmh 30.00 in1015.9 mb - 0.00 in0.0 mm 0.00 in0.0 mm
02:34 AM 49.3°F9.6°C 41.3°F5.2°C 74% 7.4 mph NW11.9 kmh NW 8.1 mph13.0 kmh 30.00 in1015.9 mb - 0.00 in0.0 mm 0.00 in0.0 mm
02:24 AM 49.8°F9.9°C 41.9°F5.5°C 74% 5.4 mph NW8.7 kmh NW 10.7 mph17.2 kmh 30.00 in1015.9 mb - 0.00 in0.0 mm 0.00 in0.0 mm
02:14 AM 50.4°F10.2°C 42.4°F5.8°C 74% 5.5 mph NW8.9 kmh NW 9.9 mph15.9 kmh 30.00 in1015.9 mb - 0.00 in0.0 mm 0.00 in0.0 mm
02:05 AM 50.5°F10.3°C 42.2°F5.7°C 73% 6.1 mph NW9.8 kmh NW 8.1 mph13.0 kmh 29.97 in1014.9 mb - 0.00 in0.0 mm 0.00 in0.0 mm
01:54 AM 50.7°F10.4°C 42.4°F5.8°C 73% 6.8 mph NW10.9 kmh NW 11.3 mph18.2 kmh 30.00 in1015.9 mb - 0.00 in0.0 mm 0.00 in0.0 mm
01:44 AM 51.1°F10.6°C 42.0°F5.6°C 71% 5.7 mph NW9.2 kmh NW 9.3 mph15.0 kmh 30.00 in1015.9 mb - 0.00 in0.0 mm 0.00 in0.0 mm
01:34 AM 51.3°F10.7°C 41.8°F5.4°C 70% 7.2 mph NW11.6 kmh NW 11.9 mph19.2 kmh 30.00 in1015.9 mb - 0.00 in0.0 mm 0.00 in0.0 mm
01:24 AM 51.6°F10.9°C 41.8°F5.4°C 69% 4.5 mph NW7.2 kmh NW 9.3 mph15.0 kmh 30.00 in1015.9 mb - 0.00 in0.0 mm 0.00 in0.0 mm
01:14 AM 51.8°F11.0°C 41.6°F5.3°C 68% 4.5 mph NW7.2 kmh NW 7.0 mph11.3 kmh 30.00 in1015.9 mb - 0.00 in0.0 mm 0.00 in0.0 mm
01:05 AM 51.8°F11.0°C 41.2°F5.1°C 67% 3.6 mph NW5.8 kmh NW 8.1 mph13.0 kmh 29.97 in1014.9 mb - 0.00 in0.0 mm 0.00 in0.0 mm
12:54 AM 51.8°F11.0°C 40.8°F4.9°C 66% 3.2 mph NW5.1 kmh NW 7.0 mph11.3 kmh 29.97 in1014.9 mb - 0.00 in0.0 mm 0.00 in0.0 mm
12:44 AM 51.8°F11.0°C 40.8°F4.9°C 66% 4.9 mph NW7.9 kmh NW 8.1 mph13.0 kmh 29.97 in1014.9 mb - 0.00 in0.0 mm 0.00 in0.0 mm
12:34 AM 51.8°F11.0°C 40.8°F4.9°C 66% 1.1 mph NW1.8 kmh NW 5.2 mph8.4 kmh 29.97 in1014.9 mb - 0.00 in0.0 mm 0.00 in0.0 mm
12:24 AM 52.0°F11.1°C 41.0°F5.0°C 66% Calm Calm -- 29.97 in1014.9 mb - 0.00 in0.0 mm 0.00 in0.0 mm
12:14 AM 52.3°F11.3°C 41.3°F5.2°C 66% 3.6 mph NW5.8 kmh NW 7.6 mph12.2 kmh 29.97 in1014.9 mb - 0.00 in0.0 mm 0.00 in0.0 mm
12:05 AM 52.3°F11.3°C 41.3°F5.2°C 66% 4.7 mph NW7.6 kmh NW 7.0 mph11.3 kmh 29.97 in1014.9 mb - 0.00 in0.0 mm 0.00 in0.0 mm